PBD2011 UWLL-UUWW
Flight info
| Callsign | PBD2011 |
|---|---|
| Flight time | N/A |
| Altitude | 38000 |
| Route | ARPUD T750 OKSUD T787 OTKOL T784 LARNO T291 URIDU L158 DIMGI |
| Aircraft | B738/M-SDE2E3FGHIRWXY/LB1 |
Departure
| Time | N/A |
|---|---|
| Airport | Ulyanovsk Baratayevka Airport (UWLL) |
Arrival
| Time | 2026-04-30 19:08 |
|---|---|
| Airport | Vnukovo International Airport (UUWW) |
| Time | Latitude | Longitude | Altitude | Speed | Heading |
|---|---|---|---|---|---|
| 2026-04-30 18:57 | 55.48825 | 37.78859 | 10407 ft | 308 kts | 263° |
| 2026-04-30 18:57 | 55.48654 | 37.76584 | 10169 ft | 307 kts | 264° |
| 2026-04-30 18:57 | 55.48374 | 37.72861 | 9758 ft | 304 kts | 263° |
| 2026-04-30 18:58 | 55.47813 | 37.65460 | 8943 ft | 307 kts | 264° |
| 2026-04-30 18:58 | 55.47528 | 37.61738 | 8528 ft | 305 kts | 264° |
| 2026-04-30 18:58 | 55.47244 | 37.58036 | 8124 ft | 303 kts | 264° |
| 2026-04-30 18:59 | 55.46683 | 37.50754 | 7335 ft | 299 kts | 264° |
| 2026-04-30 19:00 | 55.45841 | 37.39936 | 6154 ft | 294 kts | 264° |
| 2026-04-30 19:00 | 55.45560 | 37.36357 | 5736 ft | 293 kts | 263° |
| 2026-04-30 19:00 | 55.45011 | 37.29372 | 4946 ft | 280 kts | 263° |
| 2026-04-30 19:01 | 55.44489 | 37.22824 | 4286 ft | 260 kts | 263° |
| 2026-04-30 19:01 | 55.44241 | 37.19728 | 4031 ft | 249 kts | 263° |
| 2026-04-30 19:02 | 55.44390 | 37.14225 | 3986 ft | 208 kts | 300° |
| 2026-04-30 19:02 | 55.46192 | 37.10858 | 3707 ft | 183 kts | 320° |
| 2026-04-30 19:03 | 55.48010 | 37.08168 | 3351 ft | 161 kts | 320° |
| 2026-04-30 19:03 | 55.49855 | 37.06045 | 2767 ft | 161 kts | 344° |
| 2026-04-30 19:04 | 55.51933 | 37.04854 | 2513 ft | 152 kts | 341° |
| 2026-04-30 19:04 | 55.53883 | 37.04673 | 2483 ft | 145 kts | 42° |
| 2026-04-30 19:05 | 55.54905 | 37.07752 | 2495 ft | 147 kts | 65° |
| 2026-04-30 19:05 | 55.55718 | 37.11152 | 2138 ft | 149 kts | 66° |
| 2026-04-30 19:06 | 55.56488 | 37.14448 | 1541 ft | 147 kts | 67° |
| 2026-04-30 19:06 | 55.56871 | 37.16106 | 1255 ft | 145 kts | 66° |
| 2026-04-30 19:06 | 55.57629 | 37.19455 | 1155 ft | 150 kts | 66° |
| 2026-04-30 19:07 | 55.58406 | 37.22869 | 778 ft | 144 kts | 66° |
| 2026-04-30 19:07 | 55.58773 | 37.24446 | 656 ft | 128 kts | 67° |
| 2026-04-30 19:08 | 55.59326 | 37.26902 | 657 ft | 89 kts | 68° |
| 2026-04-30 19:08 | 55.59607 | 37.27621 | 668 ft | 27 kts | 39° |
| 2026-04-30 19:08 | 55.59633 | 37.27657 | 670 ft | 0 kts | 37° |
| 2026-04-30 19:10 | 55.59650 | 37.27680 | 670 ft | 9 kts | 37° |
| 2026-04-30 19:10 | 55.59862 | 37.27836 | 670 ft | 11 kts | 19° |
| 2026-04-30 19:11 | 55.59939 | 37.27886 | 669 ft | 12 kts | 33° |
| 2026-04-30 19:11 | 55.59981 | 37.27981 | 670 ft | 4 kts | 12° |
| 2026-04-30 19:11 | 55.60012 | 37.27998 | 668 ft | 0 kts | 20° |